createdAt,value
2022-08-09T00:00:05.939Z,13.31
2022-08-09T00:01:01.010Z,13.25
2022-08-09T00:02:01.023Z,13.21
2022-08-09T00:03:01.093Z,13.18
2022-08-09T00:04:10.269Z,13.2
2022-08-09T00:05:03.266Z,13.23
2022-08-09T00:06:16.477Z,13.25
2022-08-09T00:07:00.728Z,13.3
2022-08-09T00:08:01.497Z,13.33
2022-08-09T00:09:01.057Z,13.37
2022-08-09T00:10:01.209Z,13.39
2022-08-09T00:11:00.352Z,13.38
2022-08-09T00:12:04.214Z,13.38
2022-08-09T00:13:00.642Z,13.38
2022-08-09T00:14:00.801Z,13.34
2022-08-09T00:15:06.708Z,13.33
2022-08-09T00:16:02.871Z,13.32
2022-08-09T00:17:01.265Z,13.3
2022-08-09T00:18:10.345Z,13.25
2022-08-09T00:19:00.537Z,13.24
2022-08-09T00:20:00.701Z,13.2
2022-08-09T00:21:00.840Z,13.16
2022-08-09T00:22:01.028Z,13.12
2022-08-09T00:23:56.394Z,13.1
2022-08-09T00:24:00.345Z,13.08
2022-08-09T00:25:00.462Z,13.05
2022-08-09T00:26:00.604Z,13.04
2022-08-09T00:27:00.779Z,13.05
2022-08-09T00:28:00.911Z,13.05
2022-08-09T00:29:01.060Z,13.08
2022-08-09T00:30:23.384Z,13.1
2022-08-09T00:31:00.346Z,13.1
2022-08-09T00:32:00.933Z,13.05
2022-08-09T00:33:00.667Z,13.03
2022-08-09T00:34:00.813Z,13.01
2022-08-09T00:35:00.959Z,13
2022-08-09T00:36:01.103Z,12.99
2022-08-09T00:37:01.251Z,12.93
2022-08-09T00:38:00.420Z,12.91
2022-08-09T00:39:00.569Z,12.92
2022-08-09T00:40:09.133Z,12.92
2022-08-09T00:41:00.880Z,12.91
2022-08-09T00:44:11.081Z,12.86
2022-08-09T00:44:13.564Z,12.89
2022-08-09T00:44:16.958Z,12.88
2022-08-09T00:45:03.570Z,12.85
2022-08-09T00:46:00.597Z,12.84
2022-08-09T00:47:05.672Z,12.84
2022-08-09T00:48:00.886Z,12.84
2022-08-09T00:49:01.068Z,12.86
2022-08-09T00:50:01.223Z,12.84
2022-08-09T00:51:00.359Z,12.81
2022-08-09T00:52:05.292Z,12.8
2022-08-09T00:53:00.696Z,12.78
2022-08-09T00:54:00.873Z,12.76
2022-08-09T00:55:01.455Z,12.76
2022-08-09T00:56:05.597Z,12.72
2022-08-09T00:57:00.305Z,12.69
2022-08-09T00:58:00.448Z,12.66
2022-08-09T00:59:00.603Z,12.66
2022-08-09T01:00:02.871Z,12.66
2022-08-09T01:01:00.973Z,12.67
2022-08-09T01:02:01.090Z,12.66
2022-08-09T01:03:01.195Z,12.66
2022-08-09T01:04:00.344Z,12.66
2022-08-09T01:05:00.507Z,12.65
2022-08-09T01:06:03.819Z,12.64
2022-08-09T01:07:00.793Z,12.61
2022-08-09T01:08:01.677Z,12.62
2022-08-09T01:09:01.794Z,12.64
2022-08-09T01:10:01.265Z,12.63
2022-08-09T01:11:00.383Z,12.6
2022-08-09T01:12:00.528Z,12.6
2022-08-09T01:13:00.680Z,12.59
2022-08-09T01:14:01.696Z,12.56
2022-08-09T01:15:01.120Z,12.53
2022-08-09T01:16:01.177Z,12.51
2022-08-09T01:17:00.270Z,12.49
2022-08-09T01:18:00.418Z,12.48
2022-08-09T01:19:04.327Z,12.46
2022-08-09T01:20:02.798Z,12.44
2022-08-09T01:21:00.862Z,12.41
2022-08-09T01:22:01.004Z,12.4
2022-08-09T01:23:01.165Z,12.38
2022-08-09T01:24:03.012Z,12.38
2022-08-09T01:25:00.810Z,12.38
2022-08-09T01:26:00.604Z,12.37
2022-08-09T01:27:00.756Z,12.37
2022-08-09T01:28:00.905Z,12.36
2022-08-09T01:29:01.066Z,12.36
2022-08-09T01:30:01.203Z,12.33
2022-08-09T01:31:00.379Z,12.32
2022-08-09T01:32:31.113Z,12.31
2022-08-09T01:33:00.647Z,12.31
2022-08-09T01:34:00.787Z,12.31
2022-08-09T01:35:06.829Z,12.3
2022-08-09T01:36:01.110Z,12.3
2022-08-09T01:37:01.238Z,12.32
2022-08-09T01:38:09.553Z,12.32
2022-08-09T01:39:00.536Z,12.3
2022-08-09T01:40:00.770Z,12.25
2022-08-09T01:41:03.098Z,12.21
2022-08-09T01:42:05.128Z,12.2
2022-08-09T01:43:01.089Z,12.19
2022-08-09T01:44:01.213Z,12.2
2022-08-09T01:45:00.361Z,12.18
2022-08-09T01:46:00.529Z,12.16
2022-08-09T01:47:00.666Z,12.17
2022-08-09T01:48:00.806Z,12.18
2022-08-09T01:49:10.484Z,12.18
2022-08-09T01:50:01.095Z,12.18
2022-08-09T01:51:01.261Z,12.17
2022-08-09T01:52:07.604Z,12.16
2022-08-09T01:53:00.535Z,12.15
2022-08-09T01:54:00.683Z,12.14
2022-08-09T01:55:00.832Z,12.12
2022-08-09T01:56:01.008Z,12.12
2022-08-09T01:57:04.132Z,12.1
2022-08-09T01:58:00.288Z,12.1
2022-08-09T01:59:00.426Z,12.1
2022-08-09T02:00:00.569Z,12.08
2022-08-09T02:01:00.767Z,12.08
2022-08-09T02:02:01.391Z,12.07
2022-08-09T02:03:01.007Z,12.08
2022-08-09T02:04:01.164Z,12.08
2022-08-09T02:05:04.192Z,12.08
2022-08-09T02:06:03.678Z,12.08
2022-08-09T02:07:02.005Z,12.1
2022-08-09T02:08:38.590Z,12.1
2022-08-09T02:09:00.898Z,12.07
2022-08-09T02:10:01.369Z,12.06
2022-08-09T02:11:01.250Z,12.04
2022-08-09T02:12:00.369Z,12.01
2022-08-09T02:13:00.523Z,11.99
2022-08-09T02:14:07.120Z,12
2022-08-09T02:15:00.841Z,11.99
2022-08-09T02:16:00.989Z,11.99
2022-08-09T02:17:15.179Z,11.98
2022-08-09T02:18:10.213Z,11.98
2022-08-09T02:19:00.453Z,11.96
2022-08-09T02:20:01.206Z,11.96
2022-08-09T02:21:00.726Z,11.96
2022-08-09T02:22:00.877Z,11.96
2022-08-09T02:23:01.024Z,11.96
2022-08-09T02:24:01.891Z,11.96
2022-08-09T02:25:00.317Z,11.96
2022-08-09T02:26:00.466Z,11.96
2022-08-09T02:27:00.629Z,11.97
2022-08-09T02:28:03.684Z,11.98
2022-08-09T02:29:00.914Z,11.99
2022-08-09T02:30:01.705Z,11.99
2022-08-09T02:31:01.256Z,11.99
2022-08-09T02:32:00.389Z,11.99
2022-08-09T02:33:00.557Z,12
2022-08-09T02:34:07.277Z,12
2022-08-09T02:35:00.852Z,11.99
2022-08-09T02:36:04.197Z,11.98
2022-08-09T02:37:01.133Z,11.96
2022-08-09T02:38:00.288Z,11.94
2022-08-09T02:39:00.435Z,11.91
2022-08-09T02:40:01.651Z,11.9
2022-08-09T02:41:00.768Z,11.9
2022-08-09T02:42:00.892Z,11.89
2022-08-09T02:43:01.049Z,11.89
2022-08-09T02:44:01.199Z,11.89
2022-08-09T02:45:00.368Z,11.89
2022-08-09T02:46:00.517Z,11.89
2022-08-09T02:47:00.639Z,11.89
2022-08-09T02:48:00.783Z,11.87
2022-08-09T02:49:00.939Z,11.86
2022-08-09T02:50:02.099Z,11.85
2022-08-09T02:51:02.439Z,11.83
2022-08-09T02:52:00.376Z,11.81
2022-08-09T02:53:00.534Z,11.82
2022-08-09T02:54:01.588Z,11.81
2022-08-09T02:55:03.215Z,11.81
2022-08-09T02:56:01.126Z,11.79
2022-08-09T02:57:01.148Z,11.77
2022-08-09T02:58:36.876Z,11.75
2022-08-09T02:59:00.412Z,11.72
2022-08-09T03:00:25.189Z,11.7
2022-08-09T03:01:04.485Z,11.69
2022-08-09T03:02:06.807Z,11.66
2022-08-09T03:03:01.053Z,11.64
2022-08-09T03:04:18.347Z,11.62
2022-08-09T03:05:00.291Z,11.6
2022-08-09T03:06:00.429Z,11.58
2022-08-09T03:07:11.441Z,11.57
2022-08-09T03:08:00.724Z,11.56
2022-08-09T03:09:00.873Z,11.56
2022-08-09T03:10:01.016Z,11.57
2022-08-09T03:11:01.187Z,11.57
2022-08-09T03:12:09.694Z,11.55
2022-08-09T03:13:00.484Z,11.55
2022-08-09T03:14:01.642Z,11.55
2022-08-09T03:15:00.778Z,11.54
2022-08-09T03:16:06.634Z,11.52
2022-08-09T03:17:01.655Z,11.46
2022-08-09T03:18:01.222Z,11.46
2022-08-09T03:19:01.823Z,11.46
2022-08-09T03:20:05.092Z,11.48
2022-08-09T03:21:00.652Z,11.47
2022-08-09T03:22:03.268Z,11.48
2022-08-09T03:23:15.037Z,11.49
2022-08-09T03:24:04.490Z,11.52
2022-08-09T03:25:21.809Z,11.51
2022-08-09T03:26:05.127Z,11.49
2022-08-09T03:27:00.555Z,11.47
2022-08-09T03:28:00.746Z,11.48
2022-08-09T03:29:00.831Z,11.47
2022-08-09T03:30:01.591Z,11.46
2022-08-09T03:31:04.242Z,11.44
2022-08-09T03:32:00.893Z,11.44
2022-08-09T03:33:00.413Z,11.43
2022-08-09T03:34:00.556Z,11.42
2022-08-09T03:35:00.699Z,11.42
2022-08-09T03:36:12.523Z,11.43
2022-08-09T03:37:10.564Z,11.43
2022-08-09T03:38:01.223Z,11.44
2022-08-09T03:39:00.379Z,11.44
2022-08-09T03:40:00.561Z,11.43
2022-08-09T03:41:00.671Z,11.42
2022-08-09T03:42:05.955Z,11.41
2022-08-09T03:43:00.990Z,11.4
2022-08-09T03:44:03.969Z,11.38
2022-08-09T03:45:00.266Z,11.36
2022-08-09T03:46:05.178Z,11.34
2022-08-09T03:47:00.554Z,11.33
2022-08-09T03:48:00.721Z,11.33
2022-08-09T03:49:04.193Z,11.36
2022-08-09T03:50:00.993Z,11.36
2022-08-09T03:51:01.147Z,11.37
2022-08-09T03:52:03.510Z,11.36
2022-08-09T03:53:00.475Z,11.34
2022-08-09T03:54:00.582Z,11.37
2022-08-09T03:55:00.735Z,11.38
2022-08-09T03:56:00.894Z,11.38
2022-08-09T03:57:01.037Z,11.37
2022-08-09T03:58:06.552Z,11.36
2022-08-09T03:59:00.347Z,11.33
2022-08-09T04:00:01.344Z,11.32
2022-08-09T04:01:00.640Z,11.3
2022-08-09T04:02:00.793Z,11.29
2022-08-09T04:03:00.955Z,11.29
2022-08-09T04:04:03.863Z,11.3
2022-08-09T04:05:05.865Z,11.3
2022-08-09T04:06:00.386Z,11.29
2022-08-09T04:07:00.542Z,11.29
2022-08-09T04:08:00.716Z,11.3
2022-08-09T04:09:00.835Z,11.3
2022-08-09T04:10:00.982Z,11.31
2022-08-09T04:11:01.445Z,11.32
2022-08-09T04:12:00.287Z,11.34
2022-08-09T04:13:01.318Z,11.34
2022-08-09T04:14:53.404Z,11.32
2022-08-09T04:15:11.666Z,11.33
2022-08-09T04:16:19.313Z,11.34
2022-08-09T04:17:01.033Z,11.34
2022-08-09T04:18:01.194Z,11.36
2022-08-09T04:19:00.315Z,11.36
2022-08-09T04:20:02.520Z,11.39
2022-08-09T04:21:00.636Z,11.4
2022-08-09T04:22:00.786Z,11.39
2022-08-09T04:23:02.031Z,11.41
2022-08-09T04:24:01.087Z,11.4
2022-08-09T04:25:01.515Z,11.4
2022-08-09T04:26:00.391Z,11.4
2022-08-09T04:27:00.568Z,11.39
2022-08-09T04:28:03.603Z,11.39
2022-08-09T04:29:05.231Z,11.39
2022-08-09T04:30:01.038Z,11.4
2022-08-09T04:31:01.161Z,11.41
2022-08-09T04:32:00.328Z,11.42
2022-08-09T04:33:01.245Z,11.42
2022-08-09T04:34:00.607Z,11.42
2022-08-09T04:35:01.243Z,11.42
2022-08-09T04:36:00.916Z,11.42
2022-08-09T04:37:01.100Z,11.43
2022-08-09T04:38:03.583Z,11.43
2022-08-09T04:39:00.360Z,11.45
2022-08-09T04:40:00.509Z,11.45
2022-08-09T04:41:00.681Z,11.45
2022-08-09T04:42:02.751Z,11.44
2022-08-09T04:43:01.002Z,11.45
2022-08-09T04:44:06.641Z,11.46
2022-08-09T04:45:00.272Z,11.47
2022-08-09T04:46:01.229Z,11.48
2022-08-09T04:47:05.983Z,11.49
2022-08-09T04:48:03.109Z,11.48
2022-08-09T04:49:00.870Z,11.51
2022-08-09T04:50:01.014Z,11.52
2022-08-09T04:51:01.678Z,11.52
2022-08-09T04:52:00.336Z,11.55
2022-08-09T04:53:00.470Z,11.55
2022-08-09T04:54:00.621Z,11.56
2022-08-09T04:55:00.843Z,11.55
2022-08-09T04:56:00.925Z,11.56
2022-08-09T04:57:01.091Z,11.56
2022-08-09T04:58:09.289Z,11.57
2022-08-09T04:59:03.717Z,11.58
2022-08-09T05:00:00.517Z,11.59
2022-08-09T05:01:00.663Z,11.63
2022-08-09T05:02:02.972Z,11.68
2022-08-09T05:03:01.109Z,11.7
2022-08-09T05:04:02.940Z,11.72
2022-08-09T05:05:09.819Z,11.75
2022-08-09T05:06:06.875Z,11.78
2022-08-09T05:07:00.604Z,11.78
2022-08-09T05:08:00.727Z,11.81
2022-08-09T05:09:01.333Z,11.84
2022-08-09T05:10:01.866Z,11.86
2022-08-09T05:11:01.175Z,11.89
2022-08-09T05:12:00.347Z,11.92
2022-08-09T05:13:00.469Z,11.96
2022-08-09T05:14:00.616Z,11.99
2022-08-09T05:15:00.762Z,12.01
2022-08-09T05:16:00.918Z,12.04
2022-08-09T05:17:01.092Z,12.05
2022-08-09T05:18:42.207Z,12.1
2022-08-09T05:19:02.755Z,12.11
2022-08-09T05:20:00.508Z,12.12
2022-08-09T05:21:00.665Z,12.16
2022-08-09T05:22:00.819Z,12.21
2022-08-09T05:23:55.261Z,12.26
2022-08-09T05:24:02.487Z,12.32
2022-08-09T05:25:02.716Z,12.37
2022-08-09T05:26:00.413Z,12.41
2022-08-09T05:27:00.588Z,12.47
2022-08-09T05:28:00.724Z,12.55
2022-08-09T05:29:00.872Z,12.62
2022-08-09T05:30:01.033Z,12.71
2022-08-09T05:31:01.180Z,12.81
2022-08-09T05:32:00.347Z,12.92
2022-08-09T05:33:00.473Z,13.02
2022-08-09T05:34:00.636Z,13.14
2022-08-09T05:35:00.792Z,13.24
2022-08-09T05:36:01.000Z,13.35
2022-08-09T05:37:01.629Z,13.48
2022-08-09T05:38:01.245Z,13.6
2022-08-09T05:39:00.401Z,13.69
2022-08-09T05:40:00.656Z,13.78
2022-08-09T05:41:00.705Z,13.86
2022-08-09T05:42:01.565Z,13.95
2022-08-09T05:43:01.010Z,14.03
2022-08-09T05:44:01.176Z,14.08
2022-08-09T05:45:00.284Z,14.14
2022-08-09T05:46:00.436Z,14.23
2022-08-09T05:47:00.581Z,14.29
2022-08-09T05:48:01.281Z,14.37
2022-08-09T05:49:00.870Z,14.44
2022-08-09T05:50:30.922Z,14.51
2022-08-09T05:51:30.335Z,14.57
2022-08-09T05:52:00.318Z,14.62
2022-08-09T05:53:00.484Z,14.67
2022-08-09T05:54:00.694Z,14.73
2022-08-09T05:55:03.211Z,14.8
2022-08-09T05:56:01.699Z,14.87
2022-08-09T05:57:01.073Z,14.94
2022-08-09T05:58:01.254Z,14.98
2022-08-09T05:59:00.371Z,15.04
2022-08-09T06:00:00.531Z,15.12
2022-08-09T06:01:00.671Z,15.19
2022-08-09T06:02:00.819Z,15.26
2022-08-09T06:03:01.063Z,15.31
2022-08-09T06:04:01.186Z,15.37
2022-08-09T06:05:01.258Z,15.41
2022-08-09T06:06:05.988Z,15.48
2022-08-09T06:07:00.547Z,15.55
2022-08-09T06:08:05.486Z,15.61
2022-08-09T06:09:00.844Z,15.66
2022-08-09T06:10:02.611Z,15.72
2022-08-09T06:11:01.153Z,15.8
2022-08-09T06:12:00.283Z,15.88
2022-08-09T06:13:11.756Z,15.95
2022-08-09T06:14:00.583Z,16.03
2022-08-09T06:15:01.558Z,16.1
2022-08-09T06:16:00.898Z,16.15
2022-08-09T06:17:01.050Z,16.24
2022-08-09T06:18:01.213Z,16.32
2022-08-09T06:19:00.339Z,16.42
2022-08-09T06:20:00.505Z,16.48
2022-08-09T06:21:00.646Z,16.56
2022-08-09T06:22:00.808Z,16.63
2022-08-09T06:23:00.969Z,16.7
2022-08-09T06:24:02.683Z,16.77
2022-08-09T06:25:01.258Z,16.85
2022-08-09T06:26:00.409Z,16.91
2022-08-09T06:27:00.555Z,16.98
2022-08-09T06:28:00.702Z,17.06
2022-08-09T06:29:05.278Z,17.15
2022-08-09T06:30:08.907Z,17.2
2022-08-09T06:31:01.149Z,17.29
2022-08-09T06:32:24.653Z,17.36
2022-08-09T06:33:30.604Z,17.45
2022-08-09T06:34:00.604Z,17.51
2022-08-09T06:35:00.752Z,17.58
2022-08-09T06:36:00.892Z,17.63
2022-08-09T06:37:01.053Z,17.67
2022-08-09T06:38:06.731Z,17.77
2022-08-09T06:39:02.512Z,17.83
2022-08-09T06:40:03.485Z,17.92
2022-08-09T06:41:00.672Z,17.97
2022-08-09T06:42:09.184Z,18.04
2022-08-09T06:43:00.980Z,18.06
2022-08-09T06:44:01.150Z,18.08
2022-08-09T06:45:04.667Z,18.17
2022-08-09T06:46:05.218Z,18.25
2022-08-09T06:47:00.580Z,18.29
2022-08-09T06:48:01.643Z,18.32
2022-08-09T06:49:00.911Z,18.46
2022-08-09T06:50:13.404Z,18.52
2022-08-09T06:51:01.201Z,18.65
2022-08-09T06:52:00.337Z,18.72
2022-08-09T06:53:00.483Z,18.78
2022-08-09T06:54:01.186Z,18.81
2022-08-09T06:55:00.817Z,18.84
2022-08-09T06:56:00.928Z,18.89
2022-08-09T06:57:01.067Z,18.92
2022-08-09T06:58:04.125Z,18.93
2022-08-09T07:00:49.911Z,19.1
2022-08-09T07:00:51.954Z,18.99
2022-08-09T07:01:00.761Z,19.18
2022-08-09T07:02:03.884Z,19.22
2022-08-09T07:03:00.993Z,19.21
2022-08-09T07:04:04.047Z,19.22
2022-08-09T07:05:00.365Z,19.35
2022-08-09T07:06:04.575Z,19.59
2022-08-09T07:07:01.042Z,19.79
2022-08-09T07:08:01.899Z,19.91
2022-08-09T07:09:00.872Z,19.86
2022-08-09T07:10:14.177Z,19.92
2022-08-09T07:11:01.145Z,20.01
2022-08-09T07:12:00.298Z,20.11
2022-08-09T07:13:00.503Z,20.15
2022-08-09T07:14:05.469Z,20.11
2022-08-09T07:15:53.140Z,20.02
2022-08-09T07:16:41.121Z,19.92
2022-08-09T07:17:01.029Z,19.91
2022-08-09T07:18:02.309Z,19.87
2022-08-09T07:19:00.319Z,19.82
2022-08-09T07:20:00.484Z,19.76
2022-08-09T07:21:00.621Z,19.72
2022-08-09T07:22:00.771Z,19.73
2022-08-09T07:23:00.930Z,19.75
2022-08-09T07:24:01.067Z,19.79
2022-08-09T07:25:01.226Z,19.82
2022-08-09T07:26:02.811Z,19.8
2022-08-09T07:27:00.519Z,19.8
2022-08-09T07:28:00.677Z,19.8
2022-08-09T07:29:01.253Z,19.77
2022-08-09T07:30:00.957Z,19.79
2022-08-09T07:31:01.109Z,19.8
2022-08-09T07:32:00.263Z,19.82
2022-08-09T07:33:00.407Z,19.84
2022-08-09T07:34:00.578Z,19.86
2022-08-09T07:35:00.714Z,19.96
2022-08-09T07:36:00.867Z,20.01
2022-08-09T07:37:02.707Z,20.11
2022-08-09T07:38:01.169Z,20.26
2022-08-09T07:39:00.821Z,20.39
2022-08-09T07:40:00.589Z,20.49
2022-08-09T07:41:11.469Z,20.57
2022-08-09T07:42:00.760Z,20.63
2022-08-09T07:43:00.902Z,20.66
2022-08-09T07:44:01.069Z,20.68
2022-08-09T07:45:02.568Z,20.68
2022-08-09T07:46:02.059Z,20.61
2022-08-09T07:47:00.495Z,20.61
2022-08-09T07:48:04.306Z,20.61
2022-08-09T07:49:00.785Z,20.61
2022-08-09T07:50:08.248Z,20.61
2022-08-09T07:51:09.988Z,20.69
2022-08-09T07:52:04.683Z,20.73
2022-08-09T07:53:03.003Z,20.77
2022-08-09T07:54:05.043Z,20.75
2022-08-09T07:55:00.687Z,20.76
2022-08-09T07:56:03.488Z,20.77
2022-08-09T07:57:00.964Z,20.76
2022-08-09T07:58:01.110Z,20.74
2022-08-09T07:59:01.271Z,20.7
2022-08-09T08:00:03.673Z,20.7
2022-08-09T08:01:06.643Z,20.73
2022-08-09T08:02:00.756Z,20.77
2022-08-09T08:03:00.873Z,20.87
2022-08-09T08:04:01.029Z,20.96
2022-08-09T08:05:01.199Z,20.95
2022-08-09T08:06:00.313Z,20.99
2022-08-09T08:07:15.034Z,21.03
2022-08-09T08:09:01.456Z,21.1
2022-08-09T08:09:04.927Z,21.19
2022-08-09T08:10:07.830Z,21.28
2022-08-09T08:11:15.263Z,21.28
2022-08-09T08:12:25.062Z,21.32
2022-08-09T08:13:00.332Z,21.4
2022-08-09T08:14:00.470Z,21.5
2022-08-09T08:15:00.636Z,21.57
2022-08-09T08:16:00.813Z,21.55
2022-08-09T08:17:09.036Z,21.57
2022-08-09T08:18:01.065Z,21.58
2022-08-09T08:19:03.257Z,21.66
2022-08-09T08:20:00.362Z,21.79
2022-08-09T08:21:00.536Z,21.91
2022-08-09T08:22:00.654Z,21.96
2022-08-09T08:23:01.477Z,22.08
2022-08-09T08:24:12.166Z,22.13
2022-08-09T08:25:01.096Z,22.22
2022-08-09T08:26:08.336Z,22.35
2022-08-09T08:27:00.375Z,22.48
2022-08-09T08:28:00.525Z,22.64
2022-08-09T08:29:00.673Z,22.79
2022-08-09T08:30:03.723Z,22.9
2022-08-09T08:31:10.626Z,22.92
2022-08-09T08:32:03.298Z,22.98
2022-08-09T08:33:01.251Z,23.09
2022-08-09T08:34:00.417Z,23.1
2022-08-09T08:35:00.560Z,23.11
2022-08-09T08:36:03.573Z,23.23
2022-08-09T08:37:01.239Z,23.32
2022-08-09T08:38:04.916Z,23.41
2022-08-09T08:39:01.151Z,23.55
2022-08-09T08:40:00.453Z,23.64
2022-08-09T08:41:05.516Z,23.61
2022-08-09T08:42:00.611Z,23.55
2022-08-09T08:43:00.764Z,23.55
2022-08-09T08:44:03.576Z,23.69
2022-08-09T08:45:01.053Z,23.85
2022-08-09T08:46:10.161Z,23.91
2022-08-09T08:47:04.536Z,24
2022-08-09T08:48:00.491Z,24.14
2022-08-09T08:49:00.629Z,24.26
2022-08-09T08:50:02.834Z,24.33
2022-08-09T08:51:00.943Z,24.46
2022-08-09T08:52:04.103Z,24.55
2022-08-09T08:53:01.742Z,24.66
2022-08-09T08:54:03.015Z,24.76
2022-08-09T08:55:01.289Z,24.84
2022-08-09T08:56:00.718Z,24.86
2022-08-09T08:57:00.887Z,24.82
2022-08-09T08:58:01.044Z,24.84
2022-08-09T08:59:01.160Z,24.93
2022-08-09T09:00:00.314Z,25.06
2022-08-09T09:01:00.603Z,25.1
2022-08-09T09:02:00.673Z,25.07
2022-08-09T09:03:08.567Z,25.04
2022-08-09T09:04:00.950Z,25
2022-08-09T09:05:05.954Z,25
2022-08-09T09:06:05.082Z,25.07
2022-08-09T09:07:00.387Z,25.07
2022-08-09T09:08:00.581Z,25.07
2022-08-09T09:09:00.697Z,25.2
2022-08-09T09:10:04.586Z,25.36
2022-08-09T09:11:01.019Z,25.42
2022-08-09T09:12:01.153Z,25.44
2022-08-09T09:13:00.307Z,25.48
2022-08-09T09:14:00.457Z,25.51
2022-08-09T09:15:00.611Z,25.46
2022-08-09T09:16:00.749Z,25.51
2022-08-09T09:17:00.898Z,25.57
2022-08-09T09:18:01.050Z,25.57
2022-08-09T09:19:29.147Z,25.53
2022-08-09T09:20:01.151Z,25.53
2022-08-09T09:21:00.480Z,25.59
2022-08-09T09:22:02.728Z,25.61
2022-08-09T09:23:01.685Z,25.63
2022-08-09T09:24:05.367Z,25.62
2022-08-09T09:26:00.420Z,25.68
2022-08-09T09:26:12.492Z,25.72
2022-08-09T09:27:00.391Z,25.77
2022-08-09T09:28:06.055Z,25.87
2022-08-09T09:29:03.336Z,25.98
2022-08-09T09:30:10.725Z,26.04
2022-08-09T09:31:00.990Z,26.09
2022-08-09T09:32:04.505Z,26.07
2022-08-09T09:33:00.302Z,26.04
2022-08-09T09:34:00.443Z,25.95
2022-08-09T09:35:00.606Z,25.97
2022-08-09T09:36:04.027Z,25.91
2022-08-09T09:37:00.876Z,25.84
2022-08-09T09:38:01.037Z,25.84
2022-08-09T09:39:01.186Z,25.97
2022-08-09T09:40:00.857Z,25.95
2022-08-09T09:41:00.492Z,25.86
2022-08-09T09:42:00.635Z,25.69
2022-08-09T09:43:00.809Z,25.5
2022-08-09T09:44:11.548Z,25.36
2022-08-09T09:45:01.072Z,25.19
2022-08-09T09:47:00.374Z,25.07
2022-08-09T09:48:00.535Z,24.98
2022-08-09T09:49:00.689Z,24.87
2022-08-09T09:50:15.011Z,24.84
2022-08-09T09:51:00.980Z,24.87
2022-08-09T09:52:01.130Z,24.85
2022-08-09T09:53:00.463Z,24.82
2022-08-09T09:54:03.969Z,24.86
2022-08-09T09:55:00.639Z,24.92
2022-08-09T09:56:05.139Z,24.95
2022-08-09T09:58:02.411Z,24.95
2022-08-09T09:58:15.590Z,25.06
2022-08-09T09:59:01.193Z,25.21
2022-08-09T10:00:00.330Z,25.25
2022-08-09T10:01:00.470Z,25.14
2022-08-09T10:02:00.635Z,25.07
2022-08-09T10:03:00.798Z,25.09
2022-08-09T10:04:04.277Z,25.08
2022-08-09T10:05:01.083Z,25.07
2022-08-09T10:06:04.620Z,25.04
2022-08-09T10:07:03.627Z,24.99
2022-08-09T10:08:01.188Z,25.01
2022-08-09T10:09:00.729Z,25.02
2022-08-09T10:10:03.063Z,25.02
2022-08-09T10:11:06.966Z,25.01
2022-08-09T10:12:14.678Z,25.03
2022-08-09T10:13:00.297Z,25.03
2022-08-09T10:14:00.492Z,25.03
2022-08-09T10:15:00.607Z,25.03
2022-08-09T10:16:55.530Z,25.08
2022-08-09T10:17:23.931Z,25.14
2022-08-09T10:18:01.058Z,25.24
2022-08-09T10:19:01.232Z,25.36
2022-08-09T10:20:00.556Z,25.37
2022-08-09T10:21:00.494Z,25.36
2022-08-09T10:22:00.651Z,25.32
2022-08-09T10:23:01.122Z,25.27
2022-08-09T10:24:00.982Z,25.21
2022-08-09T10:25:03.393Z,25.13
2022-08-09T10:26:07.678Z,25.07
2022-08-09T10:27:00.402Z,25.04
2022-08-09T10:28:00.540Z,25.06
2022-08-09T10:29:21.032Z,25.15
2022-08-09T10:30:29.963Z,25.3
2022-08-09T10:32:38.679Z,25.43
2022-08-09T10:33:00.306Z,25.51
2022-08-09T10:34:09.774Z,25.57
2022-08-09T10:35:00.636Z,25.66
2022-08-09T10:36:02.193Z,25.77
2022-08-09T10:37:00.910Z,25.86
2022-08-09T10:38:01.060Z,25.96
2022-08-09T10:39:01.212Z,26.03
2022-08-09T10:40:00.480Z,26.15
2022-08-09T10:41:00.611Z,26.21
2022-08-09T10:42:00.659Z,26.25
2022-08-09T10:43:00.804Z,26.23
2022-08-09T10:44:02.337Z,26.22
2022-08-09T10:45:01.316Z,26.32
2022-08-09T10:46:02.115Z,26.37
2022-08-09T10:47:01.482Z,26.4
2022-08-09T10:48:26.098Z,26.51
2022-08-09T10:49:00.709Z,26.64
2022-08-09T10:50:00.863Z,26.65
2022-08-09T10:51:01.026Z,26.6
2022-08-09T10:52:01.205Z,26.51
2022-08-09T10:53:00.378Z,26.49
2022-08-09T10:54:01.955Z,26.48
2022-08-09T10:55:00.657Z,26.42
2022-08-09T10:56:00.773Z,26.45
2022-08-09T10:57:00.949Z,26.49
2022-08-09T10:58:01.066Z,26.61
2022-08-09T10:59:01.243Z,26.66
2022-08-09T11:00:01.825Z,26.79
2022-08-09T11:03:02.530Z,26.85
2022-08-09T11:03:11.583Z,26.81
2022-08-09T11:03:14.212Z,26.83
2022-08-09T11:04:03.944Z,26.75
2022-08-09T11:05:01.120Z,26.71
2022-08-09T11:06:01.336Z,26.65
2022-08-09T11:07:01.245Z,26.53
2022-08-09T11:08:00.579Z,26.45
2022-08-09T11:09:15.714Z,26.41
2022-08-09T11:10:00.894Z,26.34
2022-08-09T11:11:08.619Z,26.27
2022-08-09T11:12:01.192Z,26.22
2022-08-09T11:13:00.344Z,26.2
2022-08-09T11:14:00.481Z,26.15
2022-08-09T11:15:00.623Z,26.12
2022-08-09T11:16:06.448Z,26.06
2022-08-09T11:17:00.918Z,26.03
2022-08-09T11:18:02.919Z,25.99
2022-08-09T11:19:01.212Z,25.97
2022-08-09T11:20:10.561Z,25.97
2022-08-09T11:21:00.536Z,25.99
2022-08-09T11:22:10.636Z,26.01
2022-08-09T11:23:00.849Z,25.99
2022-08-09T11:24:00.982Z,26.02
2022-08-09T11:25:01.134Z,26.03
2022-08-09T11:26:00.470Z,26.1
2022-08-09T11:27:00.437Z,26.19
2022-08-09T11:28:07.901Z,26.22
2022-08-09T11:29:00.723Z,26.22
2022-08-09T11:30:05.143Z,26.19
2022-08-09T11:31:01.003Z,26.18
2022-08-09T11:32:01.155Z,26.18
2022-08-09T11:33:00.319Z,26.26
2022-08-09T11:34:00.446Z,26.35
2022-08-09T11:35:00.601Z,26.34
2022-08-09T11:36:00.756Z,26.33
2022-08-09T11:37:00.895Z,26.27
2022-08-09T11:38:01.067Z,26.25
2022-08-09T11:39:01.301Z,26.2
2022-08-09T11:40:00.451Z,26.09
2022-08-09T11:41:00.498Z,25.96
2022-08-09T11:42:00.641Z,25.87
2022-08-09T11:43:00.806Z,25.9
2022-08-09T11:44:00.935Z,25.97
2022-08-09T11:45:01.084Z,26.04
2022-08-09T11:46:01.241Z,26.1
2022-08-09T11:47:00.397Z,26.18
2022-08-09T11:48:08.096Z,26.22
2022-08-09T11:49:00.719Z,26.28
2022-08-09T11:50:55.326Z,26.36
2022-08-09T11:52:49.584Z,26.37
2022-08-09T11:53:03.269Z,26.46
2022-08-09T11:53:16.062Z,26.57
2022-08-09T11:54:04.213Z,26.71
2022-08-09T11:55:00.591Z,26.76
2022-08-09T11:56:02.831Z,26.78
2022-08-09T11:57:00.889Z,26.81
2022-08-09T11:58:05.918Z,26.87
2022-08-09T11:59:01.197Z,26.97
2022-08-09T12:00:00.333Z,27.01
2022-08-09T12:01:00.465Z,27.04
2022-08-09T12:02:35.250Z,27.07
2022-08-09T12:03:10.003Z,27.11
2022-08-09T12:04:01.137Z,27.1
2022-08-09T12:05:01.147Z,27.15
2022-08-09T12:06:01.211Z,27.2
2022-08-09T12:07:00.368Z,27.25
2022-08-09T12:08:00.557Z,27.17
2022-08-09T12:09:01.196Z,27.1
2022-08-09T12:10:02.185Z,26.97
2022-08-09T12:11:00.974Z,26.9
2022-08-09T12:12:03.275Z,26.85
2022-08-09T12:13:00.264Z,26.85
2022-08-09T12:14:10.228Z,26.82
2022-08-09T12:15:08.225Z,26.78
2022-08-09T12:16:00.704Z,26.87
2022-08-09T12:17:00.843Z,26.99
2022-08-09T12:18:00.996Z,27.12
2022-08-09T12:19:01.172Z,27.19
2022-08-09T12:20:00.280Z,27.23
2022-08-09T12:21:02.685Z,27.31
2022-08-09T12:22:00.589Z,27.42
2022-08-09T12:23:00.739Z,27.55
2022-08-09T12:24:08.911Z,27.65
2022-08-09T12:25:01.037Z,27.6
2022-08-09T12:26:01.190Z,27.51
2022-08-09T12:28:58.591Z,27.27
2022-08-09T12:29:13.168Z,27.38
2022-08-09T12:29:33.491Z,27.16
2022-08-09T12:30:29.886Z,27.07
2022-08-09T12:31:00.935Z,27
2022-08-09T12:32:03.224Z,26.98
2022-08-09T12:33:01.248Z,27.02
2022-08-09T12:34:01.378Z,27
2022-08-09T12:35:03.028Z,26.99
2022-08-09T12:36:00.688Z,26.99
2022-08-09T12:37:22.220Z,26.9
2022-08-09T12:38:00.977Z,26.84
2022-08-09T12:39:01.132Z,26.8
2022-08-09T12:40:00.306Z,26.81
2022-08-09T12:41:00.445Z,26.84
2022-08-09T12:42:00.584Z,27.01
2022-08-09T12:43:00.732Z,27.15
2022-08-09T12:44:05.711Z,27.34
2022-08-09T12:45:01.072Z,27.57
2022-08-09T12:46:01.187Z,27.8
2022-08-09T12:47:00.343Z,27.91
2022-08-09T12:48:00.670Z,27.8
2022-08-09T12:49:00.638Z,27.59
2022-08-09T12:50:00.819Z,27.43
2022-08-09T12:51:03.908Z,27.35
2022-08-09T12:52:03.383Z,27.27
2022-08-09T12:53:17.670Z,27.16
2022-08-09T12:54:00.356Z,27.08
2022-08-09T12:56:10.724Z,27.04
2022-08-09T12:56:13.882Z,26.98
2022-08-09T12:57:00.806Z,26.98
2022-08-09T12:58:00.957Z,27.09